Time;durP1;ratioP1;P1;durP2;ratioP2;P2;SDS_P1;SDS_P2;PMS_P1;PMS_P2;Temp;Humidity;BMP_temperature;BMP_pressure;BME280_temperature;BME280_humidity;BME280_pressure;Samples;Min_cycle;Max_cycle;Signal;HPM_P1;HPM_P2
2024/01/25 00:02:15;;;;;;;36.88;7.70;;;;;;;7.04;100.00;102687.19;5084756;28;20040;-71
2024/01/25 00:04:41;;;;;;;39.15;7.97;;;;;;;6.98;100.00;102686.03;5084945;28;20024;-73
2024/01/25 00:07:08;;;;;;;33.08;7.45;;;;;;;6.96;100.00;102671.00;5082312;28;20020;-78
2024/01/25 00:09:33;;;;;;;36.78;8.10;;;;;;;6.89;100.00;102669.84;5086043;28;21087;-77
2024/01/25 00:11:58;;;;;;;35.33;8.07;;;;;;;6.79;100.00;102662.31;5082990;28;20055;-72
2024/01/25 00:14:24;;;;;;;38.92;8.25;;;;;;;6.68;100.00;102674.03;5084765;28;20490;-73
2024/01/25 00:16:49;;;;;;;37.40;8.30;;;;;;;6.61;100.00;102679.00;5083000;28;20044;-73
2024/01/25 00:19:14;;;;;;;38.55;8.13;;;;;;;6.62;100.00;102680.78;5083790;28;20029;-74
2024/01/25 00:21:44;;;;;;;32.67;7.72;;;;;;;6.49;100.00;102680.09;5083682;28;20112;-75
2024/01/25 00:24:12;;;;;;;35.70;7.65;;;;;;;6.45;100.00;102679.03;5080918;28;20123;-71
2024/01/25 00:26:37;;;;;;;38.55;7.93;;;;;;;6.34;100.00;102678.50;5084250;28;20028;-75
2024/01/25 00:29:02;;;;;;;35.42;7.97;;;;;;;6.28;100.00;102679.06;5080729;28;20383;-72
2024/01/25 00:31:28;;;;;;;39.42;8.40;;;;;;;6.25;100.00;102681.56;5084007;28;20036;-72
2024/01/25 00:33:53;;;;;;;37.85;8.90;;;;;;;6.23;100.00;102680.59;5081872;28;20036;-75
2024/01/25 00:36:19;;;;;;;35.58;8.32;;;;;;;6.17;100.00;102680.25;5083708;28;20063;-73
2024/01/25 00:38:45;;;;;;;37.30;8.38;;;;;;;6.12;100.00;102681.75;5082743;28;20047;-71
2024/01/25 00:41:17;;;;;;;37.63;7.97;;;;;;;6.10;100.00;102683.38;5082359;28;20102;-71
2024/01/25 00:43:42;;;;;;;36.65;8.57;;;;;;;6.03;100.00;102676.91;5083103;28;20028;-72
2024/01/25 00:46:08;;;;;;;35.25;7.80;;;;;;;5.98;100.00;102690.63;5080309;28;20036;-78
2024/01/25 00:48:34;;;;;;;38.83;8.30;;;;;;;5.93;100.00;102692.97;5084479;28;20085;-75
2024/01/25 00:50:59;;;;;;;37.00;8.32;;;;;;;5.83;100.00;102683.72;5080774;28;20056;-76
2024/01/25 00:53:25;;;;;;;36.35;8.63;;;;;;;5.80;100.00;102685.28;5083872;28;20027;-73
2024/01/25 00:55:51;;;;;;;37.38;7.85;;;;;;;5.79;100.00;102694.84;5081948;28;20028;-72
2024/01/25 00:58:16;;;;;;;38.78;8.57;;;;;;;5.73;100.00;102691.91;5082848;28;20082;-73
2024/01/25 01:00:42;;;;;;;39.97;8.73;;;;;;;5.66;100.00;102692.41;5082939;28;20046;-76
2024/01/25 01:03:08;;;;;;;39.88;8.85;;;;;;;5.60;100.00;102698.22;5080161;28;20036;-74
2024/01/25 01:05:33;;;;;;;37.67;8.77;;;;;;;5.55;100.00;102697.97;5084099;28;20554;-73
2024/01/25 01:07:59;;;;;;;40.85;8.88;;;;;;;5.51;100.00;102696.00;5080655;28;20024;-80
2024/01/25 01:10:24;;;;;;;38.72;8.32;;;;;;;5.49;100.00;102697.66;5083905;28;20101;-73
2024/01/25 01:12:51;;;;;;;38.42;8.43;;;;;;;5.48;100.00;102697.56;5042225;28;1085099;-72
2024/01/25 01:15:17;;;;;;;41.60;9.18;;;;;;;5.47;100.00;102704.50;5083279;28;20032;-72
2024/01/25 01:17:43;;;;;;;40.65;8.85;;;;;;;5.40;100.00;102694.50;5083472;28;20085;-72
2024/01/25 01:20:09;;;;;;;40.95;9.30;;;;;;;5.36;100.00;102700.41;5081945;28;20040;-71
2024/01/25 01:22:34;;;;;;;40.53;8.80;;;;;;;5.40;100.00;102711.16;5083131;28;20036;-71
2024/01/25 01:24:59;;;;;;;40.35;8.52;;;;;;;5.36;100.00;102710.91;5081608;28;20033;-71
2024/01/25 01:27:25;;;;;;;39.72;9.48;;;;;;;5.28;100.00;102707.84;5084126;28;20028;-78
2024/01/25 01:29:50;;;;;;;41.45;9.00;;;;;;;5.26;100.00;102712.09;5081004;28;20028;-75
2024/01/25 01:32:15;;;;;;;39.55;9.13;;;;;;;5.24;100.00;102711.09;5082752;28;20115;-72
2024/01/25 01:34:41;;;;;;;37.70;8.30;;;;;;;5.20;100.00;102710.03;5083437;28;20103;-73
2024/01/25 01:37:06;;;;;;;41.47;8.70;;;;;;;5.20;100.00;102719.63;5081798;28;20464;-72
2024/01/25 01:39:31;;;;;;;42.15;8.77;;;;;;;5.14;100.00;102717.56;5084507;28;20024;-75
2024/01/25 01:41:57;;;;;;;40.92;9.10;;;;;;;5.04;100.00;102720.50;5079789;28;20029;-72
2024/01/25 01:44:22;;;;;;;37.38;8.38;;;;;;;4.98;100.00;102717.50;5082496;28;20028;-74
2024/01/25 01:46:47;;;;;;;39.40;8.45;;;;;;;4.93;100.00;102726.84;5082595;28;20364;-75
2024/01/25 01:49:14;;;;;;;41.05;8.82;;;;;;;4.89;100.00;102734.53;5082365;28;20044;-71
2024/01/25 01:51:43;;;;;;;48.90;9.55;;;;;;;4.82;100.00;102734.97;5083635;28;20031;-75
2024/01/25 01:54:09;;;;;;;43.90;9.10;;;;;;;4.78;100.00;102726.84;5085009;28;20039;-72
2024/01/25 01:56:35;;;;;;;44.28;9.60;;;;;;;4.84;100.00;102743.81;5081188;28;20025;-71
2024/01/25 01:59:04;;;;;;;42.90;9.65;;;;;;;4.88;100.00;102752.78;5084474;28;20024;-72
2024/01/25 02:01:29;;;;;;;42.10;9.07;;;;;;;4.82;100.00;102753.31;5076706;28;20464;-73
2024/01/25 02:03:55;;;;;;;43.42;9.45;;;;;;;4.88;100.00;102753.66;5083639;28;20024;-72
2024/01/25 02:06:23;;;;;;;43.40;9.48;;;;;;;4.79;100.00;102752.22;5080892;28;20077;-72
2024/01/25 02:08:50;;;;;;;41.65;8.93;;;;;;;4.69;100.00;102754.31;5082736;28;20025;-71
2024/01/25 02:11:16;;;;;;;42.70;9.27;;;;;;;4.66;100.00;102761.06;5082600;28;20032;-71
2024/01/25 02:13:42;;;;;;;43.17;9.93;;;;;;;4.64;100.00;102768.84;5081893;28;20055;-72
2024/01/25 02:16:08;;;;;;;44.63;9.52;;;;;;;4.63;100.00;102779.25;5083672;28;20036;-74
2024/01/25 02:18:34;;;;;;;41.38;9.40;;;;;;;4.62;100.00;102777.44;5079508;28;20025;-73
2024/01/25 02:20:59;;;;;;;44.38;9.55;;;;;;;4.69;100.00;102782.25;5072719;28;20098;-73
2024/01/25 02:23:25;;;;;;;44.13;9.65;;;;;;;4.64;100.00;102788.91;5080644;28;20023;-75
2024/01/25 02:25:50;;;;;;;41.40;9.73;;;;;;;4.58;100.00;102789.44;5082976;28;20028;-72
2024/01/25 02:28:16;;;;;;;44.25;8.90;;;;;;;4.53;100.00;102786.56;5082923;28;20039;-76
2024/01/25 02:30:41;;;;;;;44.13;9.38;;;;;;;4.48;100.00;102787.09;5081553;28;20033;-76
2024/01/25 02:33:06;;;;;;;41.05;9.18;;;;;;;4.40;100.00;102791.88;5084069;28;20028;-76
2024/01/25 02:35:32;;;;;;;40.83;9.18;;;;;;;4.34;100.00;102791.50;5080652;28;20053;-74
2024/01/25 02:37:57;;;;;;;43.15;8.98;;;;;;;4.32;100.00;102790.50;5083822;28;20028;-72
2024/01/25 02:40:23;;;;;;;43.70;10.32;;;;;;;4.28;100.00;102791.09;5081810;28;20036;-77
2024/01/25 02:42:48;;;;;;;45.28;9.63;;;;;;;4.22;100.00;102791.63;5081342;28;20498;-72
2024/01/25 02:45:13;;;;;;;45.10;9.70;;;;;;;4.18;100.00;102793.19;5081301;28;20115;-77
2024/01/25 02:47:39;;;;;;;42.70;9.38;;;;;;;4.19;100.00;102797.63;5081418;28;20032;-74
2024/01/25 02:50:05;;;;;;;45.70;10.13;;;;;;;4.23;100.00;102798.69;5083829;28;20036;-72
2024/01/25 02:52:30;;;;;;;44.00;9.30;;;;;;;4.25;100.00;102788.31;5080719;28;20025;-73
2024/01/25 02:54:55;;;;;;;46.53;9.80;;;;;;;4.25;100.00;102790.94;5087259;28;20459;-73
2024/01/25 02:57:21;;;;;;;48.25;10.35;;;;;;;4.22;100.00;102793.34;5085031;28;20502;-72
2024/01/25 02:59:47;;;;;;;43.35;9.23;;;;;;;4.16;100.00;102786.91;5085567;28;20024;-73
2024/01/25 03:02:12;;;;;;;44.80;9.73;;;;;;;4.09;100.00;102787.38;5086747;28;20028;-74
2024/01/25 03:04:37;;;;;;;42.42;9.85;;;;;;;4.09;100.00;102796.94;5084626;28;20114;-78
2024/01/25 03:07:03;;;;;;;46.13;9.75;;;;;;;4.06;100.00;102787.16;5087665;28;20051;-75
2024/01/25 03:09:28;;;;;;;47.72;10.18;;;;;;;4.06;100.00;102781.03;5083929;28;20055;-77
2024/01/25 03:11:54;;;;;;;40.10;9.10;;;;;;;4.07;100.00;102780.25;5086860;28;20040;-82
2024/01/25 03:14:19;;;;;;;44.05;9.85;;;;;;;4.04;100.00;102780.94;5085455;28;20051;-82
2024/01/25 03:16:44;;;;;;;44.20;9.90;;;;;;;3.97;100.00;102784.00;5085478;28;20572;-83
2024/01/25 03:19:10;;;;;;;42.20;8.98;;;;;;;3.95;100.00;102790.84;5086721;28;20379;-82
2024/01/25 03:21:36;;;;;;;47.30;9.77;;;;;;;3.95;100.00;102780.38;5084087;28;20033;-76
2024/01/25 03:24:01;;;;;;;43.38;9.60;;;;;;;3.95;100.00;102768.19;5084034;28;20028;-72
2024/01/25 03:26:28;;;;;;;42.58;8.80;;;;;;;3.91;100.00;102781.88;5085655;28;20059;-72
2024/01/25 03:28:53;;;;;;;44.78;9.48;;;;;;;3.85;100.00;102776.28;5084657;28;20115;-72
2024/01/25 03:31:18;;;;;;;41.10;9.63;;;;;;;3.88;100.00;102772.97;5085442;28;20513;-75
2024/01/25 03:33:44;;;;;;;43.60;9.30;;;;;;;3.85;100.00;102784.13;5085810;28;20036;-82
2024/01/25 03:36:09;;;;;;;40.25;8.52;;;;;;;3.77;100.00;102781.03;5084584;28;20028;-82
2024/01/25 03:38:34;;;;;;;40.92;8.32;;;;;;;3.77;100.00;102785.34;5086825;28;20372;-81
2024/01/25 03:41:00;;;;;;;41.80;9.00;;;;;;;3.73;100.00;102791.19;5083519;28;20028;-82
2024/01/25 03:43:26;;;;;;;41.45;8.93;;;;;;;3.72;100.00;102792.91;5086626;28;20123;-83
2024/01/25 03:45:51;;;;;;;39.90;8.82;;;;;;;3.64;100.00;102787.22;5084257;28;20039;-84
2024/01/25 03:48:16;;;;;;;40.38;8.93;;;;;;;3.65;100.00;102798.56;5084794;28;20382;-84
2024/01/25 03:50:42;;;;;;;43.42;8.75;;;;;;;3.64;100.00;102791.50;5085315;28;20032;-82
2024/01/25 03:53:08;;;;;;;39.03;8.63;;;;;;;3.66;100.00;102800.38;5083334;28;20028;-84
2024/01/25 03:55:33;;;;;;;41.80;8.73;;;;;;;3.65;100.00;102803.78;5085319;28;20399;-82
2024/01/25 03:57:59;;;;;;;41.55;8.93;;;;;;;3.65;100.00;102803.78;5082936;28;20113;-83
2024/01/25 04:00:24;;;;;;;40.40;9.15;;;;;;;3.61;100.00;102801.78;5085704;28;20615;-83
2024/01/25 04:02:50;;;;;;;39.53;8.27;;;;;;;3.56;100.00;102803.22;5084331;28;20035;-83
2024/01/25 04:05:15;;;;;;;41.42;9.05;;;;;;;3.60;100.00;102792.16;5082896;28;20043;-82
2024/01/25 04:07:41;;;;;;;38.75;8.32;;;;;;;3.55;100.00;102791.81;5085263;28;20028;-83
2024/01/25 04:10:06;;;;;;;42.35;8.80;;;;;;;3.42;100.00;102798.00;5082790;28;20037;-83
2024/01/25 04:12:33;;;;;;;38.15;8.40;;;;;;;3.40;100.00;102791.75;5086055;28;20116;-80
2024/01/25 04:14:58;;;;;;;39.75;8.88;;;;;;;3.45;100.00;102799.88;5082569;28;20172;-84
2024/01/25 04:17:23;;;;;;;39.63;8.57;;;;;;;3.43;100.00;102806.75;5085130;28;20486;-84
2024/01/25 04:19:49;;;;;;;42.10;9.95;;;;;;;3.44;100.00;102817.31;5083877;28;20035;-83
2024/01/25 04:22:14;;;;;;;41.97;8.57;;;;;;;3.45;100.00;102811.28;5083576;28;20056;-82
2024/01/25 04:24:40;;;;;;;42.42;8.75;;;;;;;3.52;100.00;102803.81;5085761;28;20043;-79
2024/01/25 04:27:05;;;;;;;43.63;9.25;;;;;;;3.53;100.00;102798.69;5082379;28;20056;-74
2024/01/25 04:29:30;;;;;;;47.50;9.90;;;;;;;3.52;100.00;102807.31;5085842;28;20032;-81
2024/01/25 04:31:56;;;;;;;44.70;9.07;;;;;;;3.46;100.00;102807.84;5081456;28;20055;-81
2024/01/25 04:34:22;;;;;;;43.55;9.38;;;;;;;3.49;100.00;102805.44;5084268;28;20473;-74
2024/01/25 04:36:47;;;;;;;43.53;9.07;;;;;;;3.43;100.00;102794.56;5084044;28;20035;-75
2024/01/25 04:39:12;;;;;;;40.92;9.02;;;;;;;3.42;100.00;102790.16;5082985;28;20032;-74
2024/01/25 04:41:38;;;;;;;43.70;9.32;;;;;;;3.36;100.00;102794.97;5085137;28;20020;-75
2024/01/25 04:44:04;;;;;;;38.85;8.93;;;;;;;3.32;100.00;102798.22;5082584;28;20042;-75
2024/01/25 04:46:35;;;;;;;42.38;8.50;;;;;;;3.24;100.00;102797.69;5085380;28;20043;-76
2024/01/25 04:49:01;;;;;;;45.35;9.27;;;;;;;3.17;100.00;102797.19;5077580;28;20174;-80
2024/01/25 04:51:26;;;;;;;47.85;9.88;;;;;;;3.09;100.00;102787.16;5085113;28;20517;-74
2024/01/25 04:53:52;;;;;;;43.33;9.43;;;;;;;3.05;100.00;102790.34;5082976;28;20055;-72
2024/01/25 04:56:17;;;;;;;44.08;9.15;;;;;;;3.02;100.00;102794.50;5083701;28;20032;-72
2024/01/25 04:58:42;;;;;;;47.10;10.32;;;;;;;3.09;100.00;102799.31;5084620;28;20422;-81
2024/01/25 05:01:08;;;;;;;46.17;9.85;;;;;;;3.01;100.00;102800.50;5082409;28;20111;-78
2024/01/25 05:03:33;;;;;;;41.83;9.52;;;;;;;3.04;100.00;102812.06;5084478;28;20043;-81
2024/01/25 05:05:59;;;;;;;45.63;9.80;;;;;;;3.08;100.00;102801.00;5082478;28;20024;-77
2024/01/25 05:08:24;;;;;;;46.38;10.13;;;;;;;3.13;100.00;102807.47;5083121;28;20020;-75
2024/01/25 05:10:50;;;;;;;47.75;10.75;;;;;;;3.11;100.00;102803.81;5083225;28;20436;-76
2024/01/25 05:13:15;;;;;;;44.67;10.07;;;;;;;3.12;100.00;102795.19;5082803;28;20056;-81
2024/01/25 05:15:41;;;;;;;38.55;9.65;;;;;;;3.02;100.00;102792.78;5084099;28;20024;-81
2024/01/25 05:18:06;;;;;;;44.50;10.02;;;;;;;2.95;100.00;102785.31;5081822;28;20434;-81
2024/01/25 05:20:32;;;;;;;46.15;10.27;;;;;;;2.85;100.00;102777.69;5085238;28;20039;-80
2024/01/25 05:23:02;;;;;;;44.40;10.52;;;;;;;2.80;100.00;102782.59;5082088;28;20036;-80
2024/01/25 05:25:28;;;;;;;41.08;9.32;;;;;;;2.77;100.00;102782.41;5084960;28;20028;-79
2024/01/25 05:27:54;;;;;;;44.30;9.95;;;;;;;2.75;100.00;102786.59;5082295;28;20428;-81
2024/01/25 05:30:22;;;;;;;49.03;11.13;;;;;;;2.71;100.00;102792.41;5082957;28;20033;-80
2024/01/25 05:32:50;;;;;;;47.15;10.65;;;;;;;2.75;100.00;102791.81;5083112;28;20463;-74
2024/01/25 05:35:16;;;;;;;47.67;10.95;;;;;;;2.84;100.00;102792.47;5082618;28;20030;-73
2024/01/25 05:37:42;;;;;;;44.45;10.45;;;;;;;2.84;100.00;102794.16;5082480;28;20024;-73
2024/01/25 05:40:09;;;;;;;47.85;11.20;;;;;;;2.78;100.00;102798.19;5081401;28;20028;-72
2024/01/25 05:42:34;;;;;;;45.95;10.90;;;;;;;2.73;100.00;102799.56;5084632;28;20035;-73
2024/01/25 05:45:00;;;;;;;49.22;11.13;;;;;;;2.69;100.00;102794.91;5081052;28;20530;-84
2024/01/25 05:47:25;;;;;;;48.35;11.60;;;;;;;2.67;100.00;102800.88;5083777;28;20125;-84
2024/01/25 05:49:51;;;;;;;46.22;10.70;;;;;;;2.64;100.00;102798.06;5081292;28;20035;-82
2024/01/25 05:52:16;;;;;;;49.67;11.73;;;;;;;2.62;100.00;102803.16;5082219;28;20463;-75
2024/01/25 05:54:43;;;;;;;50.50;11.75;;;;;;;2.58;100.00;102807.28;5082381;28;20475;-72
2024/01/25 05:57:09;;;;;;;47.03;11.10;;;;;;;2.59;100.00;102816.91;5081152;28;20460;-72
2024/01/25 05:59:34;;;;;;;52.53;12.27;;;;;;;2.57;100.00;102810.66;5082973;28;20034;-72
2024/01/25 06:01:59;;;;;;;47.75;12.25;;;;;;;2.61;100.00;102819.63;5081097;28;20055;-73
2024/01/25 06:04:25;;;;;;;53.00;12.50;;;;;;;2.66;100.00;102812.09;5083542;28;20028;-72
2024/01/25 06:06:50;;;;;;;45.75;12.50;;;;;;;2.69;100.00;102810.59;5082439;28;20028;-72
2024/01/25 06:09:15;;;;;;;49.55;12.25;;;;;;;2.64;100.00;102800.66;5082048;28;20056;-72
2024/01/25 06:11:41;;;;;;;47.95;12.30;;;;;;;2.58;100.00;102798.53;5083465;28;20081;-72
2024/01/25 06:14:07;;;;;;;45.85;12.00;;;;;;;2.54;100.00;102806.97;5080423;28;20102;-75
2024/01/25 06:16:33;;;;;;;49.53;11.77;;;;;;;2.52;100.00;102809.47;5084417;28;20093;-73
2024/01/25 06:19:00;;;;;;;48.28;12.23;;;;;;;2.44;100.00;102816.75;5080976;28;20368;-74
2024/01/25 06:21:25;;;;;;;51.42;12.98;;;;;;;2.42;100.00;102807.91;5083188;28;20058;-72
2024/01/25 06:23:51;;;;;;;49.13;12.68;;;;;;;2.43;100.00;102809.75;5080942;28;20032;-72
2024/01/25 06:26:16;;;;;;;51.33;12.77;;;;;;;2.43;100.00;102811.44;5081883;28;20028;-72
2024/01/25 06:28:41;;;;;;;49.63;12.68;;;;;;;2.40;100.00;102822.59;5085557;28;20024;-72
2024/01/25 06:31:07;;;;;;;47.53;12.80;;;;;;;2.36;100.00;102828.38;5084364;28;20115;-73
2024/01/25 06:33:32;;;;;;;51.22;13.48;;;;;;;2.39;100.00;102828.59;5088101;28;20024;-75
2024/01/25 06:35:58;;;;;;;51.47;13.23;;;;;;;2.34;100.00;102824.75;5085309;28;20048;-73
2024/01/25 06:38:23;;;;;;;47.63;12.90;;;;;;;2.29;100.00;102825.22;5086906;28;20032;-80
2024/01/25 06:40:48;;;;;;;52.25;13.55;;;;;;;2.29;100.00;102833.97;5086154;28;20439;-78
2024/01/25 06:43:14;;;;;;;52.08;13.23;;;;;;;2.25;100.00;102825.00;5085860;28;20035;-77
2024/01/25 06:45:42;;;;;;;50.70;12.82;;;;;;;2.22;100.00;102824.81;5087394;28;20065;-77
2024/01/25 06:48:10;;;;;;;52.75;12.70;;;;;;;2.18;100.00;102824.47;5084367;28;20040;-76
2024/01/25 06:50:36;;;;;;;53.75;13.73;;;;;;;2.21;100.00;102827.31;5088038;28;20118;-80
2024/01/25 06:53:01;;;;;;;52.85;13.85;;;;;;;2.28;100.00;102819.09;5084159;28;20128;-75
2024/01/25 06:55:27;;;;;;;52.33;13.20;;;;;;;2.19;100.00;102823.69;5086859;28;20086;-78
2024/01/25 06:57:52;;;;;;;50.05;13.18;;;;;;;2.16;100.00;102834.81;5084394;28;20036;-75
2024/01/25 07:00:20;;;;;;;57.10;13.93;;;;;;;2.20;100.00;102829.03;5067438;28;20028;-72
2024/01/25 07:02:46;;;;;;;52.20;14.13;;;;;;;2.26;100.00;102831.16;5086245;28;20479;-72
2024/01/25 07:05:11;;;;;;;53.13;13.65;;;;;;;2.33;100.00;102832.47;5084759;28;20032;-73
2024/01/25 07:07:38;;;;;;;56.30;13.85;;;;;;;2.33;100.00;102822.97;5087753;28;20028;-72
2024/01/25 07:10:04;;;;;;;52.20;13.85;;;;;;;2.37;100.00;102830.19;5083678;28;20082;-75
2024/01/25 07:12:30;;;;;;;57.08;14.15;;;;;;;2.36;100.00;102833.59;5087615;28;20107;-76
2024/01/25 07:14:55;;;;;;;54.65;13.98;;;;;;;2.35;100.00;102828.28;5084454;28;20075;-77
2024/01/25 07:17:20;;;;;;;48.70;13.70;;;;;;;2.39;100.00;102828.59;5085922;28;20483;-72
2024/01/25 07:19:46;;;;;;;56.65;14.55;;;;;;;2.40;100.00;102825.19;5086122;28;20031;-74
2024/01/25 07:22:13;;;;;;;51.92;14.68;;;;;;;2.36;100.00;102823.16;5084420;28;20103;-75
2024/01/25 07:24:39;;;;;;;55.35;14.85;;;;;;;2.35;100.00;102826.56;5086929;28;20052;-72
2024/01/25 07:27:04;;;;;;;53.97;14.90;;;;;;;2.31;100.00;102840.19;5083847;28;20056;-76
2024/01/25 07:29:30;;;;;;;52.92;14.77;;;;;;;2.32;100.00;102844.63;5086728;28;20077;-77
2024/01/25 07:31:55;;;;;;;51.53;15.18;;;;;;;2.38;100.00;102846.78;5084554;28;20042;-78
2024/01/25 07:34:20;;;;;;;52.83;15.43;;;;;;;2.40;100.00;102848.69;5085172;28;20025;-76
2024/01/25 07:36:46;;;;;;;56.88;15.73;;;;;;;2.44;100.00;102855.91;5085652;28;20028;-73
2024/01/25 07:39:11;;;;;;;52.70;15.70;;;;;;;2.51;100.00;102856.38;5083674;28;20056;-73
2024/01/25 07:41:37;;;;;;;58.97;17.55;;;;;;;2.56;100.00;102847.13;5087067;28;20064;-72
2024/01/25 07:44:02;;;;;;;57.33;16.85;;;;;;;2.59;100.00;102832.59;5075748;28;20020;-73
2024/01/25 07:46:27;;;;;;;55.78;16.55;;;;;;;2.63;100.00;102849.34;5085040;28;20035;-73
2024/01/25 07:48:53;;;;;;;58.15;17.33;;;;;;;2.63;100.00;102845.84;5082718;28;20036;-73
2024/01/25 07:51:18;;;;;;;57.05;16.92;;;;;;;2.63;100.00;102843.25;5084748;28;20055;-73
2024/01/25 07:53:44;;;;;;;55.90;17.08;;;;;;;2.62;100.00;102842.31;5083111;28;20025;-77
2024/01/25 07:56:10;;;;;;;59.92;16.92;;;;;;;2.62;100.00;102837.09;5086038;28;20157;-79
2024/01/25 07:58:36;;;;;;;58.92;17.40;;;;;;;2.65;100.00;102839.94;5083647;28;20116;-73
2024/01/25 08:01:08;;;;;;;55.08;17.15;;;;;;;2.70;100.00;102843.75;5085385;28;20063;-73
2024/01/25 08:03:34;;;;;;;55.67;16.98;;;;;;;2.77;100.00;102842.47;5083707;28;20143;-74
2024/01/25 08:06:02;;;;;;;57.47;17.48;;;;;;;2.85;100.00;102850.84;5084603;28;20665;-75
2024/01/25 08:08:28;;;;;;;53.80;17.30;;;;;;;2.88;100.00;102858.88;5080241;28;20025;-73
2024/01/25 08:10:53;;;;;;;63.10;17.58;;;;;;;2.89;100.00;102858.09;5079049;28;20039;-85
2024/01/25 08:13:19;;;;;;;59.55;17.90;;;;;;;2.93;100.00;102867.94;5077851;28;20044;-74
2024/01/25 08:15:44;;;;;;;62.03;19.13;;;;;;;2.94;100.00;102861.88;5076763;28;20382;-77
2024/01/25 08:18:10;;;;;;;56.30;18.30;;;;;;;2.98;100.00;102853.47;5078888;28;20386;-74
2024/01/25 08:20:37;;;;;;;58.50;18.42;;;;;;;3.03;100.00;102862.53;5077033;28;20040;-73
2024/01/25 08:23:02;;;;;;;68.30;19.60;;;;;;;3.09;100.00;102875.13;5085164;28;20028;-76
2024/01/25 08:25:28;;;;;;;64.50;21.45;;;;;;;3.16;100.00;102879.03;5083415;28;20356;-75
2024/01/25 08:27:53;;;;;;;64.20;20.60;;;;;;;3.23;100.00;102871.72;5084212;28;20029;-73
2024/01/25 08:30:18;;;;;;;68.78;20.92;;;;;;;3.30;100.00;102845.16;5084425;28;20378;-73
2024/01/25 08:32:44;;;;;;;62.72;20.08;;;;;;;3.37;100.00;102828.16;5082469;28;20432;-76
2024/01/25 08:35:10;;;;;;;63.42;21.40;;;;;;;3.42;100.00;102826.78;5085863;28;20438;-74
2024/01/25 08:37:37;;;;;;;57.50;20.63;;;;;;;3.47;100.00;102827.06;5082368;28;20364;-73
2024/01/25 08:40:05;;;;;;;55.33;21.48;;;;;;;3.51;100.00;102831.69;5085080;28;20023;-73
2024/01/25 08:42:31;;;;;;;57.20;20.83;;;;;;;3.58;100.00;102838.22;5083115;28;20162;-74
2024/01/25 08:44:56;;;;;;;63.80;21.65;;;;;;;3.62;100.00;102848.06;5084086;28;20142;-76
2024/01/25 08:47:22;;;;;;;57.55;21.60;;;;;;;3.66;100.00;102858.81;5083789;28;20036;-75
2024/01/25 08:49:47;;;;;;;58.83;22.30;;;;;;;3.72;100.00;102870.50;5081484;28;20495;-79
2024/01/25 08:52:12;;;;;;;59.17;22.33;;;;;;;3.74;100.00;102867.19;5084633;28;20040;-76
2024/01/25 08:54:38;;;;;;;55.38;22.63;;;;;;;3.75;100.00;102868.97;5081790;28;20024;-80
2024/01/25 08:57:05;;;;;;;53.50;22.63;;;;;;;3.83;100.00;102872.09;5085200;28;20378;-78
2024/01/25 08:59:32;;;;;;;53.53;22.27;;;;;;;3.83;100.00;102867.78;5082479;28;20024;-78
2024/01/25 09:01:58;;;;;;;46.78;21.65;;;;;;;3.93;100.00;102868.34;5084087;28;20391;-75
2024/01/25 09:04:23;;;;;;;51.80;23.05;;;;;;;3.97;100.00;102870.34;5083493;28;20035;-81
2024/01/25 09:06:49;;;;;;;50.30;22.63;;;;;;;3.99;100.00;102868.72;5082908;28;20032;-73
2024/01/25 09:09:14;;;;;;;54.20;23.60;;;;;;;4.05;100.00;102860.38;5084510;28;20076;-74
2024/01/25 09:11:39;;;;;;;49.25;22.02;;;;;;;4.11;100.00;102866.91;5077052;28;20083;-75
2024/01/25 09:14:05;;;;;;;54.53;24.35;;;;;;;4.15;100.00;102874.16;5083592;28;20044;-73
2024/01/25 09:16:30;;;;;;;47.22;23.00;;;;;;;4.22;100.00;102871.91;5081826;28;20040;-74
2024/01/25 09:18:55;;;;;;;48.40;23.85;;;;;;;4.29;100.00;102871.47;5085297;28;20020;-73
2024/01/25 09:21:21;;;;;;;50.10;23.92;;;;;;;4.38;100.00;102868.53;5081495;28;20482;-74
2024/01/25 09:23:46;;;;;;;49.05;22.83;;;;;;;4.50;100.00;102875.44;5084198;28;20028;-81
2024/01/25 09:26:12;;;;;;;45.00;22.63;;;;;;;4.58;100.00;102861.91;5082547;28;20028;-82
2024/01/25 09:28:37;;;;;;;47.90;22.73;;;;;;;4.72;100.00;102863.66;5082576;28;20056;-85
2024/01/25 09:31:03;;;;;;;44.97;22.95;;;;;;;4.89;100.00;102865.56;5082574;28;20062;-84
2024/01/25 09:33:29;;;;;;;45.05;21.50;;;;;;;5.06;100.00;102871.78;5081270;28;20044;-83
2024/01/25 09:35:55;;;;;;;46.97;22.45;;;;;;;5.28;100.00;102873.06;5085003;28;20378;-82
2024/01/25 09:38:21;;;;;;;42.03;19.98;;;;;;;5.41;100.00;102872.06;5081765;28;20029;-85
2024/01/25 09:40:48;;;;;;;43.30;20.20;;;;;;;5.46;100.00;102864.44;5083861;28;20028;-80
2024/01/25 09:43:14;;;;;;;39.58;19.50;;;;;;;5.65;100.00;102850.66;5082023;28;20043;-83
2024/01/25 09:45:40;;;;;;;41.75;19.85;;;;;;;5.81;100.00;102863.84;5081205;28;20032;-73
2024/01/25 09:48:06;;;;;;;40.08;18.88;;;;;;;5.79;100.00;102877.69;5082094;28;20062;-77
2024/01/25 09:50:33;;;;;;;43.03;19.63;;;;;;;5.75;100.00;102873.97;5083605;28;20036;-79
2024/01/25 09:52:59;;;;;;;38.03;18.38;;;;;;;5.81;100.00;102873.41;5080026;28;20386;-78
2024/01/25 09:55:26;;;;;;;38.97;18.58;;;;;;;5.82;100.00;102870.88;5084354;28;20455;-74
2024/01/25 09:57:57;;;;;;;37.97;18.02;;;;;;;5.84;100.00;102865.72;5080891;28;20471;-77
2024/01/25 10:00:23;;;;;;;39.72;18.40;;;;;;;5.84;100.00;102863.09;5076963;28;20036;-78
2024/01/25 10:02:51;;;;;;;37.60;17.02;;;;;;;5.86;100.00;102865.00;5086073;28;20368;-80
2024/01/25 10:05:18;;;;;;;36.63;17.10;;;;;;;5.83;100.00;102862.19;5068122;28;20071;-73
2024/01/25 10:07:45;;;;;;;36.08;17.13;;;;;;;5.88;100.00;102842.38;5087309;28;20067;-77
2024/01/25 10:10:12;;;;;;;36.67;16.85;;;;;;;5.97;100.00;102843.69;5086451;28;20036;-78
2024/01/25 10:12:38;;;;;;;36.60;17.58;;;;;;;5.93;100.00;102845.25;5086214;28;20088;-78
2024/01/25 10:15:04;;;;;;;38.00;17.73;;;;;;;5.89;100.00;102836.28;5087494;28;20055;-80
2024/01/25 10:17:30;;;;;;;38.30;18.08;;;;;;;5.94;100.00;102819.06;5085459;28;20086;-80
2024/01/25 10:19:56;;;;;;;39.42;17.92;;;;;;;6.09;100.00;102824.28;5087004;28;20464;-79
2024/01/25 10:22:22;;;;;;;39.78;18.20;;;;;;;6.14;100.00;102829.78;5084925;28;20025;-79
2024/01/25 10:24:50;;;;;;;39.45;17.95;;;;;;;6.17;100.00;102835.19;5087443;28;20035;-80
2024/01/25 10:27:16;;;;;;;40.13;17.92;;;;;;;6.26;100.00;102838.34;5088101;28;20024;-75
2024/01/25 10:29:41;;;;;;;39.50;17.75;;;;;;;6.38;100.00;102842.44;5086134;28;20075;-74
2024/01/25 10:32:08;;;;;;;38.90;17.88;;;;;;;6.47;100.00;102828.91;5085722;28;20082;-85
2024/01/25 10:34:36;;;;;;;39.47;17.77;;;;;;;6.56;100.00;102814.50;5087164;28;20067;-85
2024/01/25 10:37:04;;;;;;;43.00;18.00;;;;;;;6.71;100.00;102802.97;5085197;28;20021;-73
2024/01/25 10:39:31;;;;;;;38.35;17.80;;;;;;;6.80;100.00;102806.97;5087776;28;20024;-85
2024/01/25 10:41:58;;;;;;;43.47;18.13;;;;;;;6.84;100.00;102796.63;5083112;28;20441;-86
2024/01/25 10:44:24;;;;;;;38.95;16.60;;;;;;;6.97;100.00;102805.22;5080560;28;20499;-86
2024/01/25 10:46:49;;;;;;;42.00;17.33;;;;;;;6.97;100.00;102793.78;5087241;28;20032;-86
2024/01/25 10:49:17;;;;;;;39.38;17.13;;;;;;;6.94;100.00;102798.88;5084254;28;20028;-86
2024/01/25 10:51:44;;;;;;;40.75;17.30;;;;;;;6.98;100.00;102801.75;5086432;28;20085;-80
2024/01/25 10:54:10;;;;;;;42.03;17.35;;;;;;;7.01;100.00;102797.47;5085974;28;20039;-80
2024/01/25 10:56:36;;;;;;;41.22;16.70;;;;;;;7.06;100.00;102793.34;5085184;28;20039;-73
2024/01/25 10:59:03;;;;;;;40.17;17.33;;;;;;;7.09;100.00;102785.59;5087209;28;20024;-73
2024/01/25 11:01:28;;;;;;;38.33;16.02;;;;;;;7.10;100.00;102784.78;5084010;28;20024;-73
2024/01/25 11:03:54;;;;;;;39.35;16.77;;;;;;;7.16;100.00;102790.34;5087373;28;20028;-73
2024/01/25 11:06:22;;;;;;;37.30;16.02;;;;;;;7.18;100.00;102782.50;5084941;28;20094;-78